sensor_id;sensor_type;location;lat;lon;timestamp;temperature;humidity
42715;DHT22;28351;51.480;5.706;2022-09-16T00:00:42;12.20;99.90
42715;DHT22;28351;51.480;5.706;2022-09-16T00:03:09;12.20;99.90
42715;DHT22;28351;51.480;5.706;2022-09-16T00:05:40;12.30;99.90
42715;DHT22;28351;51.480;5.706;2022-09-16T00:08:07;12.30;99.90
42715;DHT22;28351;51.480;5.706;2022-09-16T00:10:34;12.30;99.90
42715;DHT22;28351;51.480;5.706;2022-09-16T00:13:00;12.30;99.90
42715;DHT22;28351;51.480;5.706;2022-09-16T00:15:25;12.30;99.90
42715;DHT22;28351;51.480;5.706;2022-09-16T00:17:51;12.30;99.90
42715;DHT22;28351;51.480;5.706;2022-09-16T00:20:17;12.40;99.90
42715;DHT22;28351;51.480;5.706;2022-09-16T00:22:42;12.40;99.90
42715;DHT22;28351;51.480;5.706;2022-09-16T00:25:08;12.40;99.90
42715;DHT22;28351;51.480;5.706;2022-09-16T00:27:34;12.50;99.90
42715;DHT22;28351;51.480;5.706;2022-09-16T00:29:59;12.50;99.90
42715;DHT22;28351;51.480;5.706;2022-09-16T00:32:25;12.50;99.90
42715;DHT22;28351;51.480;5.706;2022-09-16T00:34:51;12.60;99.90
42715;DHT22;28351;51.480;5.706;2022-09-16T00:37:17;12.60;99.90
42715;DHT22;28351;51.480;5.706;2022-09-16T00:39:46;12.70;99.90
42715;DHT22;28351;51.480;5.706;2022-09-16T00:42:12;12.60;99.90
42715;DHT22;28351;51.480;5.706;2022-09-16T00:47:26;12.60;99.90
42715;DHT22;28351;51.480;5.706;2022-09-16T00:49:55;12.60;99.90
42715;DHT22;28351;51.480;5.706;2022-09-16T00:52:24;12.60;99.90
42715;DHT22;28351;51.480;5.706;2022-09-16T00:54:50;12.60;99.90
42715;DHT22;28351;51.480;5.706;2022-09-16T00:57:16;12.50;99.90
42715;DHT22;28351;51.480;5.706;2022-09-16T00:59:46;12.50;99.90
42715;DHT22;28351;51.480;5.706;2022-09-16T01:02:16;12.50;99.90
42715;DHT22;28351;51.480;5.706;2022-09-16T01:04:59;12.50;99.90
42715;DHT22;28351;51.480;5.706;2022-09-16T01:07:33;12.50;99.90
42715;DHT22;28351;51.480;5.706;2022-09-16T01:10:00;12.50;99.90
42715;DHT22;28351;51.480;5.706;2022-09-16T01:12:27;12.50;99.90
42715;DHT22;28351;51.480;5.706;2022-09-16T01:14:55;12.50;99.90
42715;DHT22;28351;51.480;5.706;2022-09-16T01:23:31;12.40;99.90
42715;DHT22;28351;51.480;5.706;2022-09-16T01:34:34;12.10;99.90
42715;DHT22;28351;51.480;5.706;2022-09-16T01:37:33;12.00;99.90
42715;DHT22;28351;51.480;5.706;2022-09-16T01:42:59;11.90;99.90
42715;DHT22;28351;51.480;5.706;2022-09-16T01:46:03;11.80;99.90
42715;DHT22;28351;51.480;5.706;2022-09-16T01:48:40;11.70;99.90
42715;DHT22;28351;51.480;5.706;2022-09-16T01:51:20;11.70;99.90
42715;DHT22;28351;51.480;5.706;2022-09-16T01:56:45;11.60;99.90
42715;DHT22;28351;51.480;5.706;2022-09-16T01:59:27;11.60;99.90
42715;DHT22;28351;51.480;5.706;2022-09-16T02:02:08;11.60;99.90
42715;DHT22;28351;51.480;5.706;2022-09-16T02:04:41;11.50;99.90
42715;DHT22;28351;51.480;5.706;2022-09-16T02:07:10;11.40;99.90
42715;DHT22;28351;51.480;5.706;2022-09-16T02:09:41;11.40;99.90
42715;DHT22;28351;51.480;5.706;2022-09-16T02:12:13;11.30;99.90
42715;DHT22;28351;51.480;5.706;2022-09-16T02:14:42;11.20;99.90
42715;DHT22;28351;51.480;5.706;2022-09-16T02:17:12;11.20;99.90
42715;DHT22;28351;51.480;5.706;2022-09-16T02:19:45;11.20;99.90
42715;DHT22;28351;51.480;5.706;2022-09-16T02:22:31;11.20;99.90
42715;DHT22;28351;51.480;5.706;2022-09-16T02:24:58;11.30;99.90
42715;DHT22;28351;51.480;5.706;2022-09-16T02:27:27;11.30;99.90
42715;DHT22;28351;51.480;5.706;2022-09-16T02:29:56;11.20;99.90
42715;DHT22;28351;51.480;5.706;2022-09-16T02:32:25;11.20;99.90
42715;DHT22;28351;51.480;5.706;2022-09-16T02:34:54;11.20;99.90
42715;DHT22;28351;51.480;5.706;2022-09-16T02:37:33;11.20;99.90
42715;DHT22;28351;51.480;5.706;2022-09-16T02:40:04;11.30;99.90
42715;DHT22;28351;51.480;5.706;2022-09-16T02:42:32;11.30;99.90
42715;DHT22;28351;51.480;5.706;2022-09-16T02:44:59;11.40;99.90
42715;DHT22;28351;51.480;5.706;2022-09-16T02:50:09;11.30;99.90
42715;DHT22;28351;51.480;5.706;2022-09-16T02:52:41;11.30;99.90
42715;DHT22;28351;51.480;5.706;2022-09-16T02:55:20;11.20;99.90
42715;DHT22;28351;51.480;5.706;2022-09-16T02:57:48;11.30;99.90
42715;DHT22;28351;51.480;5.706;2022-09-16T03:00:14;11.30;99.90
42715;DHT22;28351;51.480;5.706;2022-09-16T03:02:40;11.40;99.90
42715;DHT22;28351;51.480;5.706;2022-09-16T03:05:06;11.40;99.90
42715;DHT22;28351;51.480;5.706;2022-09-16T03:07:32;11.40;99.90
42715;DHT22;28351;51.480;5.706;2022-09-16T03:09:58;11.40;99.90
42715;DHT22;28351;51.480;5.706;2022-09-16T03:20:38;11.50;99.90
42715;DHT22;28351;51.480;5.706;2022-09-16T03:26:33;11.50;99.90
42715;DHT22;28351;51.480;5.706;2022-09-16T03:31:51;11.50;99.90
42715;DHT22;28351;51.480;5.706;2022-09-16T03:34:30;11.50;99.90
42715;DHT22;28351;51.480;5.706;2022-09-16T03:37:02;11.60;99.90
42715;DHT22;28351;51.480;5.706;2022-09-16T03:39:30;11.60;99.90
42715;DHT22;28351;51.480;5.706;2022-09-16T03:42:01;11.70;99.90
42715;DHT22;28351;51.480;5.706;2022-09-16T03:44:35;11.70;99.90
42715;DHT22;28351;51.480;5.706;2022-09-16T03:47:02;11.80;99.90
42715;DHT22;28351;51.480;5.706;2022-09-16T03:49:28;11.80;99.90
42715;DHT22;28351;51.480;5.706;2022-09-16T03:51:55;11.90;99.90
42715;DHT22;28351;51.480;5.706;2022-09-16T03:54:20;11.90;99.90
42715;DHT22;28351;51.480;5.706;2022-09-16T03:56:46;11.90;99.90
42715;DHT22;28351;51.480;5.706;2022-09-16T03:59:11;11.90;99.90
42715;DHT22;28351;51.480;5.706;2022-09-16T04:01:37;11.90;99.90
42715;DHT22;28351;51.480;5.706;2022-09-16T04:04:02;11.90;99.90
42715;DHT22;28351;51.480;5.706;2022-09-16T04:06:28;11.90;99.90
42715;DHT22;28351;51.480;5.706;2022-09-16T04:08:54;11.90;99.90
42715;DHT22;28351;51.480;5.706;2022-09-16T04:11:25;11.90;99.90
42715;DHT22;28351;51.480;5.706;2022-09-16T04:13:54;11.90;99.90
42715;DHT22;28351;51.480;5.706;2022-09-16T04:16:20;11.90;99.90
42715;DHT22;28351;51.480;5.706;2022-09-16T04:18:46;11.90;99.90
42715;DHT22;28351;51.480;5.706;2022-09-16T04:21:12;11.90;99.90
42715;DHT22;28351;51.480;5.706;2022-09-16T04:23:37;11.90;99.90
42715;DHT22;28351;51.480;5.706;2022-09-16T04:26:03;11.90;99.90
42715;DHT22;28351;51.480;5.706;2022-09-16T04:28:30;11.80;99.90
42715;DHT22;28351;51.480;5.706;2022-09-16T04:31:04;11.70;99.90
42715;DHT22;28351;51.480;5.706;2022-09-16T04:33:32;11.70;99.90
42715;DHT22;28351;51.480;5.706;2022-09-16T04:36:06;11.70;99.90
42715;DHT22;28351;51.480;5.706;2022-09-16T04:38:33;11.70;99.90
42715;DHT22;28351;51.480;5.706;2022-09-16T04:41:07;11.70;99.90
42715;DHT22;28351;51.480;5.706;2022-09-16T04:43:33;11.70;99.90
42715;DHT22;28351;51.480;5.706;2022-09-16T04:46:00;11.80;99.90
42715;DHT22;28351;51.480;5.706;2022-09-16T04:48:26;11.70;99.90
42715;DHT22;28351;51.480;5.706;2022-09-16T04:50:52;11.70;99.90
42715;DHT22;28351;51.480;5.706;2022-09-16T04:53:19;11.60;99.90
42715;DHT22;28351;51.480;5.706;2022-09-16T04:55:45;11.60;99.90
42715;DHT22;28351;51.480;5.706;2022-09-16T04:58:11;11.60;99.90
42715;DHT22;28351;51.480;5.706;2022-09-16T05:00:37;11.60;99.90
42715;DHT22;28351;51.480;5.706;2022-09-16T05:03:03;11.60;99.90
42715;DHT22;28351;51.480;5.706;2022-09-16T05:05:28;11.60;99.90
42715;DHT22;28351;51.480;5.706;2022-09-16T05:07:55;11.70;99.90
42715;DHT22;28351;51.480;5.706;2022-09-16T05:10:20;11.70;99.90
42715;DHT22;28351;51.480;5.706;2022-09-16T05:12:52;11.70;99.90
42715;DHT22;28351;51.480;5.706;2022-09-16T05:15:19;11.70;99.90
42715;DHT22;28351;51.480;5.706;2022-09-16T05:17:44;11.70;99.90
42715;DHT22;28351;51.480;5.706;2022-09-16T05:20:10;11.80;99.90
42715;DHT22;28351;51.480;5.706;2022-09-16T05:22:36;11.80;99.90
42715;DHT22;28351;51.480;5.706;2022-09-16T05:25:02;11.90;99.90
42715;DHT22;28351;51.480;5.706;2022-09-16T05:27:31;11.90;99.90
42715;DHT22;28351;51.480;5.706;2022-09-16T05:29:57;11.90;99.90
42715;DHT22;28351;51.480;5.706;2022-09-16T05:32:23;11.90;99.90
42715;DHT22;28351;51.480;5.706;2022-09-16T05:34:48;11.90;99.90
42715;DHT22;28351;51.480;5.706;2022-09-16T05:37:18;11.90;99.90
42715;DHT22;28351;51.480;5.706;2022-09-16T05:39:43;11.80;99.90
42715;DHT22;28351;51.480;5.706;2022-09-16T05:42:09;11.80;99.90
42715;DHT22;28351;51.480;5.706;2022-09-16T05:44:35;11.80;99.90
42715;DHT22;28351;51.480;5.706;2022-09-16T05:47:01;11.80;99.90
42715;DHT22;28351;51.480;5.706;2022-09-16T05:49:29;11.80;99.90
42715;DHT22;28351;51.480;5.706;2022-09-16T05:51:55;11.80;99.90
42715;DHT22;28351;51.480;5.706;2022-09-16T05:54:20;11.80;99.90
42715;DHT22;28351;51.480;5.706;2022-09-16T05:56:49;11.80;99.90
42715;DHT22;28351;51.480;5.706;2022-09-16T05:59:16;11.90;99.90
42715;DHT22;28351;51.480;5.706;2022-09-16T06:01:42;11.90;99.90
42715;DHT22;28351;51.480;5.706;2022-09-16T06:04:10;12.00;99.90
42715;DHT22;28351;51.480;5.706;2022-09-16T06:06:38;12.10;99.90
42715;DHT22;28351;51.480;5.706;2022-09-16T06:11:39;12.10;99.90
42715;DHT22;28351;51.480;5.706;2022-09-16T06:14:06;12.20;99.90
42715;DHT22;28351;51.480;5.706;2022-09-16T06:16:32;12.20;99.90
42715;DHT22;28351;51.480;5.706;2022-09-16T06:19:04;12.30;99.90
42715;DHT22;28351;51.480;5.706;2022-09-16T06:21:30;12.30;99.90
42715;DHT22;28351;51.480;5.706;2022-09-16T06:23:56;12.40;99.90
42715;DHT22;28351;51.480;5.706;2022-09-16T06:26:24;12.40;99.90
42715;DHT22;28351;51.480;5.706;2022-09-16T06:28:50;12.40;99.90
42715;DHT22;28351;51.480;5.706;2022-09-16T06:31:22;12.40;99.90
42715;DHT22;28351;51.480;5.706;2022-09-16T06:33:49;12.50;99.90
42715;DHT22;28351;51.480;5.706;2022-09-16T06:36:28;12.50;99.90
42715;DHT22;28351;51.480;5.706;2022-09-16T06:38:54;12.60;99.90
42715;DHT22;28351;51.480;5.706;2022-09-16T06:41:20;12.60;99.90
42715;DHT22;28351;51.480;5.706;2022-09-16T06:43:47;12.70;99.90
42715;DHT22;28351;51.480;5.706;2022-09-16T06:46:15;12.80;99.90
42715;DHT22;28351;51.480;5.706;2022-09-16T06:48:42;12.90;99.90
42715;DHT22;28351;51.480;5.706;2022-09-16T06:51:15;12.90;99.90
42715;DHT22;28351;51.480;5.706;2022-09-16T06:53:42;12.70;99.90
42715;DHT22;28351;51.480;5.706;2022-09-16T06:56:10;12.70;99.90
42715;DHT22;28351;51.480;5.706;2022-09-16T06:58:37;12.60;99.90
42715;DHT22;28351;51.480;5.706;2022-09-16T07:01:08;12.70;99.90
42715;DHT22;28351;51.480;5.706;2022-09-16T07:03:43;12.70;99.90
42715;DHT22;28351;51.480;5.706;2022-09-16T07:06:10;12.80;99.90
42715;DHT22;28351;51.480;5.706;2022-09-16T07:08:37;12.80;99.90
42715;DHT22;28351;51.480;5.706;2022-09-16T07:11:03;12.80;99.90
42715;DHT22;28351;51.480;5.706;2022-09-16T07:13:30;12.70;99.90
42715;DHT22;28351;51.480;5.706;2022-09-16T07:16:04;12.80;99.90
42715;DHT22;28351;51.480;5.706;2022-09-16T07:18:31;13.10;99.90
42715;DHT22;28351;51.480;5.706;2022-09-16T07:21:10;13.20;99.90
42715;DHT22;28351;51.480;5.706;2022-09-16T07:23:37;13.30;99.90
42715;DHT22;28351;51.480;5.706;2022-09-16T07:26:07;13.20;99.90
42715;DHT22;28351;51.480;5.706;2022-09-16T07:28:33;13.00;99.90
42715;DHT22;28351;51.480;5.706;2022-09-16T07:31:01;12.90;99.90
42715;DHT22;28351;51.480;5.706;2022-09-16T07:33:27;12.90;99.90
42715;DHT22;28351;51.480;5.706;2022-09-16T07:35:57;12.90;99.90
42715;DHT22;28351;51.480;5.706;2022-09-16T07:38:22;13.00;99.90
42715;DHT22;28351;51.480;5.706;2022-09-16T07:40:51;13.00;99.90
42715;DHT22;28351;51.480;5.706;2022-09-16T07:43:16;13.00;99.90
42715;DHT22;28351;51.480;5.706;2022-09-16T07:45:42;13.10;99.90
42715;DHT22;28351;51.480;5.706;2022-09-16T07:48:08;13.20;99.90
42715;DHT22;28351;51.480;5.706;2022-09-16T07:50:33;13.20;99.90
42715;DHT22;28351;51.480;5.706;2022-09-16T07:52:59;13.20;99.90
42715;DHT22;28351;51.480;5.706;2022-09-16T07:55:25;13.40;99.90
42715;DHT22;28351;51.480;5.706;2022-09-16T07:57:51;13.40;99.90
42715;DHT22;28351;51.480;5.706;2022-09-16T08:00:17;13.40;99.90
42715;DHT22;28351;51.480;5.706;2022-09-16T08:02:43;13.50;99.90
42715;DHT22;28351;51.480;5.706;2022-09-16T08:05:08;13.80;99.90
42715;DHT22;28351;51.480;5.706;2022-09-16T08:07:34;14.00;99.90
42715;DHT22;28351;51.480;5.706;2022-09-16T08:10:09;14.30;99.90
42715;DHT22;28351;51.480;5.706;2022-09-16T08:12:35;14.50;99.90
42715;DHT22;28351;51.480;5.706;2022-09-16T08:15:00;14.50;99.90
42715;DHT22;28351;51.480;5.706;2022-09-16T08:17:26;14.60;99.90
42715;DHT22;28351;51.480;5.706;2022-09-16T08:19:52;14.50;99.90
42715;DHT22;28351;51.480;5.706;2022-09-16T08:22:17;14.40;99.90
42715;DHT22;28351;51.480;5.706;2022-09-16T08:24:43;14.30;99.90
42715;DHT22;28351;51.480;5.706;2022-09-16T08:27:14;14.30;99.90
42715;DHT22;28351;51.480;5.706;2022-09-16T08:29:43;14.30;99.90
42715;DHT22;28351;51.480;5.706;2022-09-16T08:32:08;14.20;99.90
42715;DHT22;28351;51.480;5.706;2022-09-16T08:34:34;14.20;99.90
42715;DHT22;28351;51.480;5.706;2022-09-16T08:37:00;14.20;99.90
42715;DHT22;28351;51.480;5.706;2022-09-16T08:39:25;14.20;99.90
42715;DHT22;28351;51.480;5.706;2022-09-16T08:49:59;14.20;99.90
42715;DHT22;28351;51.480;5.706;2022-09-16T08:52:35;14.30;99.90
42715;DHT22;28351;51.480;5.706;2022-09-16T08:57:33;14.40;99.90
42715;DHT22;28351;51.480;5.706;2022-09-16T09:00:06;14.50;99.90
42715;DHT22;28351;51.480;5.706;2022-09-16T09:02:41;14.50;99.90
42715;DHT22;28351;51.480;5.706;2022-09-16T09:14:11;15.00;99.90
42715;DHT22;28351;51.480;5.706;2022-09-16T09:19:30;15.50;99.90
42715;DHT22;28351;51.480;5.706;2022-09-16T09:27:52;15.70;99.90
42715;DHT22;28351;51.480;5.706;2022-09-16T09:30:26;16.00;99.90
42715;DHT22;28351;51.480;5.706;2022-09-16T09:41:29;16.50;99.90
42715;DHT22;28351;51.480;5.706;2022-09-16T09:43:56;16.70;99.90
42715;DHT22;28351;51.480;5.706;2022-09-16T09:46:28;16.80;99.90
42715;DHT22;28351;51.480;5.706;2022-09-16T09:49:03;16.80;99.90
42715;DHT22;28351;51.480;5.706;2022-09-16T09:51:40;16.50;99.90
42715;DHT22;28351;51.480;5.706;2022-09-16T09:57:01;16.70;99.90
42715;DHT22;28351;51.480;5.706;2022-09-16T10:02:22;17.10;99.90
42715;DHT22;28351;51.480;5.706;2022-09-16T10:04:49;17.20;99.90
42715;DHT22;28351;51.480;5.706;2022-09-16T10:07:17;16.40;99.90
42715;DHT22;28351;51.480;5.706;2022-09-16T10:09:53;14.40;99.90
42715;DHT22;28351;51.480;5.706;2022-09-16T10:12:27;13.10;99.90
42715;DHT22;28351;51.480;5.706;2022-09-16T10:14:53;12.50;99.90
42715;DHT22;28351;51.480;5.706;2022-09-16T10:17:18;12.20;99.90
42715;DHT22;28351;51.480;5.706;2022-09-16T10:19:59;12.20;99.90
42715;DHT22;28351;51.480;5.706;2022-09-16T10:22:28;12.20;99.90
42715;DHT22;28351;51.480;5.706;2022-09-16T10:25:00;12.20;99.90
42715;DHT22;28351;51.480;5.706;2022-09-16T10:27:28;12.20;99.90
42715;DHT22;28351;51.480;5.706;2022-09-16T10:32:29;12.60;99.90
42715;DHT22;28351;51.480;5.706;2022-09-16T10:34:55;12.70;99.90
42715;DHT22;28351;51.480;5.706;2022-09-16T10:37:22;12.60;99.90
42715;DHT22;28351;51.480;5.706;2022-09-16T10:39:54;12.60;99.90
42715;DHT22;28351;51.480;5.706;2022-09-16T10:42:27;12.40;99.90
42715;DHT22;28351;51.480;5.706;2022-09-16T10:44:57;12.40;99.90
42715;DHT22;28351;51.480;5.706;2022-09-16T10:47:29;12.20;99.90
42715;DHT22;28351;51.480;5.706;2022-09-16T10:49:57;12.20;99.90
42715;DHT22;28351;51.480;5.706;2022-09-16T10:52:51;12.10;99.90
42715;DHT22;28351;51.480;5.706;2022-09-16T10:57:44;12.20;99.90
42715;DHT22;28351;51.480;5.706;2022-09-16T11:00:14;12.20;99.90
42715;DHT22;28351;51.480;5.706;2022-09-16T11:03:01;12.20;99.90
42715;DHT22;28351;51.480;5.706;2022-09-16T11:05:51;12.30;99.90
42715;DHT22;28351;51.480;5.706;2022-09-16T11:17:22;12.80;99.90
42715;DHT22;28351;51.480;5.706;2022-09-16T11:28:49;15.70;99.90
42715;DHT22;28351;51.480;5.706;2022-09-16T11:31:33;14.90;99.90
42715;DHT22;28351;51.480;5.706;2022-09-16T11:34:30;14.70;99.90
42715;DHT22;28351;51.480;5.706;2022-09-16T11:42:56;14.10;99.90
42715;DHT22;28351;51.480;5.706;2022-09-16T11:51:23;13.50;99.90
42715;DHT22;28351;51.480;5.706;2022-09-16T11:56:43;13.10;99.90
42715;DHT22;28351;51.480;5.706;2022-09-16T11:59:41;13.10;99.90
42715;DHT22;28351;51.480;5.706;2022-09-16T12:02:37;15.60;99.90
42715;DHT22;28351;51.480;5.706;2022-09-16T12:05:32;19.30;99.90
42715;DHT22;28351;51.480;5.706;2022-09-16T12:08:04;20.50;99.90
42715;DHT22;28351;51.480;5.706;2022-09-16T12:11:01;22.20;99.90
42715;DHT22;28351;51.480;5.706;2022-09-16T12:13:34;21.60;99.90
42715;DHT22;28351;51.480;5.706;2022-09-16T12:16:04;19.10;99.90
42715;DHT22;28351;51.480;5.706;2022-09-16T12:18:55;16.90;99.90
42715;DHT22;28351;51.480;5.706;2022-09-16T12:21:31;15.30;99.90
42715;DHT22;28351;51.480;5.706;2022-09-16T12:27:08;12.10;99.90
42715;DHT22;28351;51.480;5.706;2022-09-16T12:29:46;11.70;99.90
42715;DHT22;28351;51.480;5.706;2022-09-16T12:32:20;11.60;99.90
42715;DHT22;28351;51.480;5.706;2022-09-16T12:34:53;11.90;99.90
42715;DHT22;28351;51.480;5.706;2022-09-16T12:37:40;12.20;99.90
42715;DHT22;28351;51.480;5.706;2022-09-16T12:40:23;13.30;99.90
42715;DHT22;28351;51.480;5.706;2022-09-16T12:43:24;14.30;99.90
42715;DHT22;28351;51.480;5.706;2022-09-16T12:46:39;15.60;99.90
42715;DHT22;28351;51.480;5.706;2022-09-16T12:52:37;22.10;99.90
42715;DHT22;28351;51.480;5.706;2022-09-16T13:03:39;24.20;99.90
42715;DHT22;28351;51.480;5.706;2022-09-16T13:06:24;24.00;99.90
42715;DHT22;28351;51.480;5.706;2022-09-16T13:08:51;24.60;99.90
42715;DHT22;28351;51.480;5.706;2022-09-16T13:11:22;24.30;99.90
42715;DHT22;28351;51.480;5.706;2022-09-16T13:13:54;22.70;99.90
42715;DHT22;28351;51.480;5.706;2022-09-16T13:16:32;20.90;99.90
42715;DHT22;28351;51.480;5.706;2022-09-16T13:19:40;19.40;99.90
42715;DHT22;28351;51.480;5.706;2022-09-16T13:22:28;17.20;99.90
42715;DHT22;28351;51.480;5.706;2022-09-16T13:25:05;15.90;99.90
42715;DHT22;28351;51.480;5.706;2022-09-16T13:27:37;15.30;99.90
42715;DHT22;28351;51.480;5.706;2022-09-16T13:30:13;14.70;99.90
42715;DHT22;28351;51.480;5.706;2022-09-16T13:32:41;14.20;99.90
42715;DHT22;28351;51.480;5.706;2022-09-16T13:37:51;13.70;99.90
42715;DHT22;28351;51.480;5.706;2022-09-16T13:40:22;13.80;99.90
42715;DHT22;28351;51.480;5.706;2022-09-16T13:42:48;13.60;99.90
42715;DHT22;28351;51.480;5.706;2022-09-16T13:45:42;13.50;99.90
42715;DHT22;28351;51.480;5.706;2022-09-16T13:48:17;13.30;99.90
42715;DHT22;28351;51.480;5.706;2022-09-16T13:50:52;13.10;99.90
42715;DHT22;28351;51.480;5.706;2022-09-16T13:53:30;13.10;99.90
42715;DHT22;28351;51.480;5.706;2022-09-16T14:01:39;13.00;99.90
42715;DHT22;28351;51.480;5.706;2022-09-16T14:04:18;13.10;99.90
42715;DHT22;28351;51.480;5.706;2022-09-16T14:07:18;13.20;99.90
42715;DHT22;28351;51.480;5.706;2022-09-16T14:12:43;13.30;99.90
42715;DHT22;28351;51.480;5.706;2022-09-16T14:15:10;13.50;99.90
42715;DHT22;28351;51.480;5.706;2022-09-16T14:17:42;14.10;99.90
42715;DHT22;28351;51.480;5.706;2022-09-16T14:20:34;15.10;99.90
42715;DHT22;28351;51.480;5.706;2022-09-16T14:23:16;17.70;99.90
42715;DHT22;28351;51.480;5.706;2022-09-16T14:25:42;18.70;99.90
42715;DHT22;28351;51.480;5.706;2022-09-16T14:28:16;19.10;99.90
42715;DHT22;28351;51.480;5.706;2022-09-16T14:30:52;17.90;99.90
42715;DHT22;28351;51.480;5.706;2022-09-16T14:33:26;16.70;99.90
42715;DHT22;28351;51.480;5.706;2022-09-16T14:35:53;16.20;99.90
42715;DHT22;28351;51.480;5.706;2022-09-16T14:38:25;16.50;99.90
42715;DHT22;28351;51.480;5.706;2022-09-16T14:40:55;16.80;99.90
42715;DHT22;28351;51.480;5.706;2022-09-16T14:43:21;17.40;99.90
42715;DHT22;28351;51.480;5.706;2022-09-16T14:45:55;16.30;99.90
42715;DHT22;28351;51.480;5.706;2022-09-16T14:48:29;15.90;99.90
42715;DHT22;28351;51.480;5.706;2022-09-16T14:50:57;16.30;99.90
42715;DHT22;28351;51.480;5.706;2022-09-16T14:53:29;17.20;99.90
42715;DHT22;28351;51.480;5.706;2022-09-16T14:55:56;16.50;99.90
42715;DHT22;28351;51.480;5.706;2022-09-16T14:58:24;16.30;99.90
42715;DHT22;28351;51.480;5.706;2022-09-16T15:00:54;17.80;99.90
42715;DHT22;28351;51.480;5.706;2022-09-16T15:03:35;18.90;99.90
42715;DHT22;28351;51.480;5.706;2022-09-16T15:06:11;19.60;99.90
42715;DHT22;28351;51.480;5.706;2022-09-16T15:08:54;20.40;99.90
42715;DHT22;28351;51.480;5.706;2022-09-16T15:11:25;21.60;99.90
42715;DHT22;28351;51.480;5.706;2022-09-16T15:13:52;22.00;99.90
42715;DHT22;28351;51.480;5.706;2022-09-16T15:16:21;22.10;99.90
42715;DHT22;28351;51.480;5.706;2022-09-16T15:18:57;21.50;99.90
42715;DHT22;28351;51.480;5.706;2022-09-16T15:21:32;21.70;99.90
42715;DHT22;28351;51.480;5.706;2022-09-16T15:24:01;20.30;99.90
42715;DHT22;28351;51.480;5.706;2022-09-16T15:26:41;19.80;99.90
42715;DHT22;28351;51.480;5.706;2022-09-16T15:32:16;17.80;99.90
42715;DHT22;28351;51.480;5.706;2022-09-16T15:34:43;16.90;99.90
42715;DHT22;28351;51.480;5.706;2022-09-16T15:37:31;16.20;99.90
42715;DHT22;28351;51.480;5.706;2022-09-16T15:40:30;15.60;99.90
42715;DHT22;28351;51.480;5.706;2022-09-16T15:45:34;15.20;99.90
42715;DHT22;28351;51.480;5.706;2022-09-16T15:48:22;15.10;99.90
42715;DHT22;28351;51.480;5.706;2022-09-16T15:51:42;15.00;99.90
42715;DHT22;28351;51.480;5.706;2022-09-16T15:53:46;14.80;99.90
42715;DHT22;28351;51.480;5.706;2022-09-16T15:56:23;14.80;99.90
42715;DHT22;28351;51.480;5.706;2022-09-16T15:58:53;14.80;99.90
42715;DHT22;28351;51.480;5.706;2022-09-16T16:01:45;14.90;99.90
42715;DHT22;28351;51.480;5.706;2022-09-16T16:04:12;14.80;99.90
42715;DHT22;28351;51.480;5.706;2022-09-16T16:06:58;14.80;99.90
42715;DHT22;28351;51.480;5.706;2022-09-16T16:11:59;14.70;99.90
42715;DHT22;28351;51.480;5.706;2022-09-16T16:14:30;14.80;99.90
42715;DHT22;28351;51.480;5.706;2022-09-16T16:17:05;14.80;99.90
42715;DHT22;28351;51.480;5.706;2022-09-16T16:19:31;14.90;99.90
42715;DHT22;28351;51.480;5.706;2022-09-16T16:21:56;15.00;99.90
42715;DHT22;28351;51.480;5.706;2022-09-16T16:24:23;15.20;99.90
42715;DHT22;28351;51.480;5.706;2022-09-16T16:26:50;15.10;99.90
42715;DHT22;28351;51.480;5.706;2022-09-16T16:29:16;15.00;99.90
42715;DHT22;28351;51.480;5.706;2022-09-16T16:32:06;14.90;99.90
42715;DHT22;28351;51.480;5.706;2022-09-16T16:34:38;14.80;99.90
42715;DHT22;28351;51.480;5.706;2022-09-16T16:37:05;14.50;99.90
42715;DHT22;28351;51.480;5.706;2022-09-16T16:39:32;14.30;99.90
42715;DHT22;28351;51.480;5.706;2022-09-16T16:41:58;14.30;99.90
42715;DHT22;28351;51.480;5.706;2022-09-16T16:44:24;14.30;99.90
42715;DHT22;28351;51.480;5.706;2022-09-16T16:46:51;14.20;99.90
42715;DHT22;28351;51.480;5.706;2022-09-16T16:49:18;14.30;99.90
42715;DHT22;28351;51.480;5.706;2022-09-16T16:51:44;14.30;99.90
42715;DHT22;28351;51.480;5.706;2022-09-16T16:54:11;14.30;99.90
42715;DHT22;28351;51.480;5.706;2022-09-16T16:56:37;14.20;99.90
42715;DHT22;28351;51.480;5.706;2022-09-16T16:59:05;14.10;99.90
42715;DHT22;28351;51.480;5.706;2022-09-16T17:01:31;14.00;99.90
42715;DHT22;28351;51.480;5.706;2022-09-16T17:03:57;13.90;99.90
42715;DHT22;28351;51.480;5.706;2022-09-16T17:06:25;13.70;99.90
42715;DHT22;28351;51.480;5.706;2022-09-16T17:08:50;13.60;99.90
42715;DHT22;28351;51.480;5.706;2022-09-16T17:11:18;13.50;99.90
42715;DHT22;28351;51.480;5.706;2022-09-16T17:13:47;13.30;99.90
42715;DHT22;28351;51.480;5.706;2022-09-16T17:16:19;13.20;99.90
42715;DHT22;28351;51.480;5.706;2022-09-16T17:18:45;13.10;99.90
42715;DHT22;28351;51.480;5.706;2022-09-16T17:21:14;12.90;99.90
42715;DHT22;28351;51.480;5.706;2022-09-16T17:23:40;12.80;99.90
42715;DHT22;28351;51.480;5.706;2022-09-16T17:26:07;12.80;99.90
42715;DHT22;28351;51.480;5.706;2022-09-16T17:28:33;12.80;99.90
42715;DHT22;28351;51.480;5.706;2022-09-16T17:30:59;12.70;99.90
42715;DHT22;28351;51.480;5.706;2022-09-16T17:33:25;12.70;99.90
42715;DHT22;28351;51.480;5.706;2022-09-16T17:36:02;12.60;99.90
42715;DHT22;28351;51.480;5.706;2022-09-16T17:38:28;12.60;99.90
42715;DHT22;28351;51.480;5.706;2022-09-16T17:41:05;12.50;99.90
42715;DHT22;28351;51.480;5.706;2022-09-16T17:43:32;12.40;99.90
42715;DHT22;28351;51.480;5.706;2022-09-16T17:45:59;12.30;99.90
42715;DHT22;28351;51.480;5.706;2022-09-16T17:48:26;12.30;99.90
42715;DHT22;28351;51.480;5.706;2022-09-16T17:50:52;12.20;99.90
42715;DHT22;28351;51.480;5.706;2022-09-16T17:53:18;12.20;99.90
42715;DHT22;28351;51.480;5.706;2022-09-16T17:55:44;12.10;99.90
42715;DHT22;28351;51.480;5.706;2022-09-16T17:58:11;12.10;99.90
42715;DHT22;28351;51.480;5.706;2022-09-16T18:00:37;12.00;99.90
42715;DHT22;28351;51.480;5.706;2022-09-16T18:03:03;12.00;99.90
42715;DHT22;28351;51.480;5.706;2022-09-16T18:05:33;11.90;99.90
42715;DHT22;28351;51.480;5.706;2022-09-16T18:07:59;11.90;99.90
42715;DHT22;28351;51.480;5.706;2022-09-16T18:10:25;11.80;99.90
42715;DHT22;28351;51.480;5.706;2022-09-16T18:12:50;11.80;99.90
42715;DHT22;28351;51.480;5.706;2022-09-16T18:15:16;11.80;99.90
42715;DHT22;28351;51.480;5.706;2022-09-16T18:17:42;11.80;99.90
42715;DHT22;28351;51.480;5.706;2022-09-16T18:20:10;11.80;99.90
42715;DHT22;28351;51.480;5.706;2022-09-16T18:22:36;11.80;99.90
42715;DHT22;28351;51.480;5.706;2022-09-16T18:25:03;11.80;99.90
42715;DHT22;28351;51.480;5.706;2022-09-16T18:27:32;11.90;99.90
42715;DHT22;28351;51.480;5.706;2022-09-16T18:30:01;11.90;99.90